createdAt,value
2023-01-26T00:04:09.816Z,2.13
2023-01-26T00:09:14.753Z,2.07
2023-01-26T00:14:22.041Z,2.00
2023-01-26T00:19:23.889Z,1.96
2023-01-26T00:24:25.898Z,1.97
2023-01-26T00:29:27.666Z,2.01
2023-01-26T00:34:32.696Z,1.99
2023-01-26T00:39:34.452Z,1.96
2023-01-26T00:44:38.723Z,2.05
2023-01-26T00:49:40.461Z,2.12
2023-01-26T00:54:42.192Z,2.09
2023-01-26T00:59:43.856Z,2.01
2023-01-26T01:04:51.127Z,1.88
2023-01-26T01:09:54.052Z,1.84
2023-01-26T01:14:55.770Z,1.87
2023-01-26T01:19:58.831Z,1.85
2023-01-26T01:25:00.521Z,1.84
2023-01-26T01:30:08.074Z,1.81
2023-01-26T01:35:10.075Z,1.75
2023-01-26T01:40:13.436Z,1.77
2023-01-26T01:45:27.694Z,1.79
2023-01-26T01:50:34.619Z,1.75
2023-01-26T01:55:36.670Z,1.81
2023-01-26T02:00:39.166Z,1.88
2023-01-26T02:05:48.934Z,1.85
2023-01-26T02:10:54.893Z,1.83
2023-01-26T02:15:59.563Z,1.76
2023-01-26T02:21:07.631Z,1.81
2023-01-26T02:26:21.134Z,1.85
2023-01-26T02:31:25.494Z,1.83
2023-01-26T02:36:31.056Z,1.81
2023-01-26T02:41:52.006Z,1.83
2023-01-26T02:46:55.101Z,1.81
2023-01-26T02:51:57.241Z,1.74
2023-01-26T02:56:59.123Z,1.67
2023-01-26T03:02:01.301Z,1.39
2023-01-26T03:07:03.179Z,1.21
2023-01-26T03:12:05.172Z,1.39
2023-01-26T03:17:06.972Z,1.45
2023-01-26T03:22:29.060Z,1.50
2023-01-26T03:27:40.692Z,1.59
2023-01-26T03:32:42.991Z,1.76
2023-01-26T03:37:54.538Z,1.83
2023-01-26T03:43:28.555Z,1.74
2023-01-26T03:48:49.515Z,1.66
2023-01-26T03:54:10.631Z,1.63
2023-01-26T03:59:15.303Z,1.62
2023-01-26T04:04:36.017Z,1.71
2023-01-26T04:09:39.663Z,1.80
2023-01-26T04:15:00.530Z,1.85
2023-01-26T04:20:21.972Z,1.86
2023-01-26T04:25:23.906Z,1.85
2023-01-26T04:30:26.218Z,1.81
2023-01-26T04:35:30.113Z,1.77
2023-01-26T04:40:32.097Z,1.74
2023-01-26T04:45:34.014Z,1.71
2023-01-26T04:50:36.640Z,1.74
2023-01-26T04:55:38.437Z,1.76
2023-01-26T05:00:40.353Z,1.76
2023-01-26T05:05:42.382Z,1.81
2023-01-26T05:10:45.151Z,1.86
2023-01-26T05:15:54.641Z,1.92
2023-01-26T05:21:12.745Z,1.97
2023-01-26T05:26:19.211Z,1.95
2023-01-26T05:31:32.497Z,1.97
2023-01-26T05:36:34.394Z,2.03
2023-01-26T05:41:36.227Z,2.07
2023-01-26T05:46:53.378Z,2.08
2023-01-26T05:51:55.870Z,2.07
2023-01-26T05:56:58.437Z,2.05
2023-01-26T06:02:02.183Z,2.05
2023-01-26T06:07:04.533Z,2.11
2023-01-26T06:12:19.976Z,2.21
2023-01-26T06:17:30.609Z,2.34
2023-01-26T06:22:35.111Z,2.36
2023-01-26T06:27:42.068Z,2.33
2023-01-26T06:32:50.606Z,2.26
2023-01-26T06:37:53.579Z,2.30
2023-01-26T06:42:55.612Z,2.39
2023-01-26T06:47:57.704Z,2.42
2023-01-26T06:53:02.950Z,2.43
2023-01-26T06:58:12.113Z,2.46
2023-01-26T07:03:50.276Z,2.48
2023-01-26T07:08:51.971Z,2.54
2023-01-26T07:13:53.719Z,2.60
2023-01-26T07:18:55.841Z,2.73
2023-01-26T07:23:57.922Z,2.80
2023-01-26T07:28:59.612Z,2.84
2023-01-26T07:34:01.484Z,2.91
2023-01-26T07:39:03.673Z,2.94
2023-01-26T07:44:09.921Z,3.08
2023-01-26T07:49:12.786Z,3.21
2023-01-26T07:54:14.657Z,3.24
2023-01-26T07:59:16.312Z,3.26
2023-01-26T08:04:18.605Z,3.25
2023-01-26T08:09:20.353Z,3.35
2023-01-26T08:14:22.137Z,3.45
2023-01-26T08:19:23.822Z,3.63
2023-01-26T08:24:26.874Z,3.81
2023-01-26T08:29:28.646Z,3.96
2023-01-26T08:34:30.372Z,4.02
2023-01-26T08:39:32.066Z,4.18
2023-01-26T08:44:33.784Z,4.33
2023-01-26T08:49:35.532Z,4.44
2023-01-26T08:54:37.261Z,4.44
2023-01-26T08:59:39.085Z,4.40
2023-01-26T09:04:40.794Z,4.42
2023-01-26T09:09:42.511Z,4.48
2023-01-26T09:14:44.255Z,4.62
2023-01-26T09:19:45.906Z,4.76
2023-01-26T09:24:47.606Z,4.82
2023-01-26T09:29:49.435Z,4.79
2023-01-26T09:34:51.323Z,4.83
2023-01-26T09:39:53.007Z,4.83
2023-01-26T09:45:06.900Z,4.89
2023-01-26T09:50:18.065Z,4.99
2023-01-26T09:55:22.156Z,4.99
2023-01-26T10:00:45.460Z,4.93
2023-01-26T10:06:14.580Z,4.91
2023-01-26T10:11:44.944Z,4.97
2023-01-26T10:16:53.155Z,5.03
2023-01-26T10:21:59.400Z,5.04
2023-01-26T10:27:01.191Z,4.99
2023-01-26T10:32:03.726Z,4.94
2023-01-26T10:37:30.732Z,4.94
2023-01-26T10:42:35.002Z,4.94
2023-01-26T10:47:37.446Z,4.96
2023-01-26T10:52:56.239Z,5.03
2023-01-26T10:57:58.477Z,4.87
2023-01-26T11:03:06.151Z,4.74
2023-01-26T11:08:33.755Z,4.72
2023-01-26T11:13:35.476Z,4.87
2023-01-26T11:18:56.044Z,5.02
2023-01-26T11:24:02.734Z,5.03
2023-01-26T11:29:17.537Z,5.03
2023-01-26T11:34:43.925Z,4.93
2023-01-26T11:40:04.919Z,4.80
2023-01-26T11:45:26.157Z,4.82
2023-01-26T11:50:30.943Z,4.95
2023-01-26T11:56:07.841Z,5.04
2023-01-26T12:01:55.854Z,5.12
2023-01-26T12:07:06.840Z,5.11
2023-01-26T12:12:32.489Z,5.13
2023-01-26T12:17:40.573Z,5.16
2023-01-26T12:22:49.555Z,5.15
2023-01-26T12:28:16.919Z,5.07
2023-01-26T12:33:19.490Z,4.96
2023-01-26T12:38:43.075Z,4.83
2023-01-26T12:44:10.085Z,4.68
2023-01-26T12:49:20.937Z,4.63
2023-01-26T12:54:40.930Z,4.64
2023-01-26T12:59:46.986Z,4.65
2023-01-26T13:04:51.033Z,4.57
2023-01-26T13:10:10.076Z,4.54
2023-01-26T13:15:14.973Z,4.53
2023-01-26T13:20:43.305Z,4.53
2023-01-26T13:26:10.043Z,4.46
2023-01-26T13:31:13.350Z,4.36
2023-01-26T13:36:19.073Z,4.26
2023-01-26T13:41:21.444Z,4.20
2023-01-26T13:46:45.160Z,4.21
2023-01-26T13:51:49.949Z,4.19
2023-01-26T13:57:06.564Z,4.19
2023-01-26T14:02:22.833Z,4.25
2023-01-26T14:07:40.900Z,4.20
2023-01-26T14:12:47.166Z,3.89
2023-01-26T14:17:52.570Z,3.56
2023-01-26T14:23:10.317Z,3.41
2023-01-26T14:28:17.177Z,3.52
2023-01-26T14:33:18.946Z,3.63
2023-01-26T14:38:21.150Z,3.71
2023-01-26T14:43:24.373Z,3.67
2023-01-26T14:48:34.879Z,3.56
2023-01-26T14:53:37.471Z,3.42
2023-01-26T14:58:39.484Z,3.40
2023-01-26T15:03:41.357Z,3.32
2023-01-26T15:08:53.842Z,3.13
2023-01-26T15:13:56.390Z,2.88
2023-01-26T15:19:07.942Z,2.73
2023-01-26T15:24:14.886Z,2.58
2023-01-26T15:29:31.070Z,2.41
2023-01-26T15:34:42.253Z,2.20
2023-01-26T15:39:44.025Z,2.13
2023-01-26T15:44:45.715Z,2.11
2023-01-26T15:49:47.337Z,2.11
2023-01-26T15:54:50.864Z,2.07
2023-01-26T15:59:52.595Z,1.91
2023-01-26T16:04:54.376Z,1.85
2023-01-26T16:09:55.993Z,1.80
2023-01-26T16:14:58.075Z,1.76
2023-01-26T16:20:00.349Z,1.72
2023-01-26T16:25:02.018Z,1.75
2023-01-26T16:30:03.767Z,1.82
2023-01-26T16:35:14.661Z,1.78
2023-01-26T16:40:20.882Z,1.77
2023-01-26T16:45:28.943Z,1.64
2023-01-26T16:50:31.746Z,1.50
2023-01-26T16:55:33.542Z,1.49
2023-01-26T17:00:35.171Z,1.55
2023-01-26T17:05:36.916Z,1.52
2023-01-26T17:10:48.932Z,1.54
2023-01-26T17:16:00.853Z,1.50
2023-01-26T17:21:03.527Z,1.43
2023-01-26T17:26:05.226Z,1.33
2023-01-26T17:31:10.847Z,1.29
2023-01-26T17:36:14.027Z,1.32
2023-01-26T17:41:16.660Z,1.36
2023-01-26T17:46:20.708Z,1.37
2023-01-26T17:51:23.243Z,1.44
2023-01-26T17:56:25.204Z,1.42
2023-01-26T18:01:27.037Z,1.39
2023-01-26T18:06:29.740Z,1.33
2023-01-26T18:11:31.738Z,1.18
2023-01-26T18:16:33.946Z,1.20
2023-01-26T18:21:36.979Z,1.18
2023-01-26T18:26:39.234Z,1.15
2023-01-26T18:31:41.092Z,1.12
2023-01-26T18:36:42.849Z,1.12
2023-01-26T18:41:44.675Z,1.25
2023-01-26T18:46:46.366Z,1.45
2023-01-26T18:51:48.329Z,1.62
2023-01-26T18:56:50.060Z,1.64
2023-01-26T19:01:51.801Z,1.65
2023-01-26T19:06:53.489Z,1.63
2023-01-26T19:11:55.496Z,1.67
2023-01-26T19:16:57.283Z,1.74
2023-01-26T19:21:59.176Z,1.79
2023-01-26T19:27:01.585Z,1.60
2023-01-26T19:32:03.515Z,1.60
2023-01-26T19:37:05.271Z,1.68
2023-01-26T19:42:07.027Z,1.72
2023-01-26T19:47:08.631Z,1.79
2023-01-26T19:52:10.343Z,1.68
2023-01-26T19:57:12.141Z,1.64
2023-01-26T20:02:13.867Z,1.75
2023-01-26T20:07:15.796Z,1.92
2023-01-26T20:12:20.397Z,2.02
2023-01-26T20:17:22.293Z,2.07
2023-01-26T20:22:24.400Z,2.04
2023-01-26T20:27:26.499Z,2.03
2023-01-26T20:32:28.722Z,2.03
2023-01-26T20:37:30.657Z,2.13
2023-01-26T20:42:33.315Z,2.21
2023-01-26T20:47:38.334Z,2.22
2023-01-26T20:52:42.787Z,2.14
2023-01-26T20:57:45.453Z,2.10
2023-01-26T21:02:47.303Z,2.08
2023-01-26T21:07:49.239Z,1.97
2023-01-26T21:12:51.506Z,1.82
2023-01-26T21:17:56.336Z,1.66
2023-01-26T21:22:59.905Z,1.55
2023-01-26T21:28:01.988Z,1.57
2023-01-26T21:33:03.859Z,1.59
2023-01-26T21:38:06.465Z,1.54
2023-01-26T21:43:08.232Z,1.55
2023-01-26T21:48:28.012Z,1.54
2023-01-26T21:53:29.835Z,1.56
2023-01-26T21:58:50.391Z,1.62
2023-01-26T22:03:57.379Z,1.66
2023-01-26T22:08:59.522Z,1.67
2023-01-26T22:14:12.644Z,1.59
2023-01-26T22:19:14.822Z,1.52
2023-01-26T22:24:17.934Z,1.46
2023-01-26T22:29:20.201Z,1.48
2023-01-26T22:34:22.624Z,1.53
2023-01-26T22:39:24.293Z,1.53
2023-01-26T22:44:28.898Z,1.46
2023-01-26T22:49:30.702Z,1.41
2023-01-26T22:54:32.493Z,1.39
2023-01-26T22:59:34.198Z,1.42
2023-01-26T23:04:35.839Z,1.45
2023-01-26T23:09:37.548Z,1.45
2023-01-26T23:14:39.239Z,1.39
2023-01-26T23:19:40.851Z,1.32
2023-01-26T23:25:02.584Z,1.37
2023-01-26T23:30:04.650Z,1.40
2023-01-26T23:35:06.567Z,1.45
2023-01-26T23:40:09.279Z,1.46
2023-01-26T23:45:11.166Z,1.40
2023-01-26T23:50:13.085Z,1.25
2023-01-26T23:55:15.154Z,1.16
